Terminal Aerodrome Forecast
Issued by NWS Upton, NY

Home | Current Version | Previous Version | Text Only | Print | Product List | Glossary On
Versions: 1 2 3 4 5 6 7 8 9 10 11 12 13 14 15 16 17 18 19 20 21 22 23 24 25 26 27 28 29 30
955
FTUS41 KOKX 271122
TAFJFK
TAF
KJFK 271122Z 2712/2818 26011KT P6SM BKN020 OVC040
      TEMPO 2712/2714 SCT020 BKN040
     FM271400 26010KT P6SM SCT015 BKN040
     FM271900 20010KT P6SM SCT040 BKN250
     FM280100 24006KT P6SM BKN250
     FM280400 03006KT P6SM SCT250
     FM281500 06012KT P6SM BKN025=

USA.gov is the U.S. government's official web portal to all federal, state and local government web resources and services.